Time;durP1;ratioP1;P1;durP2;ratioP2;P2;SDS_P1;SDS_P2;PMS_P1;PMS_P2;Temp;Humidity;BMP_temperature;BMP_pressure;BME280_temperature;BME280_humidity;BME280_pressure;Samples;Min_cycle;Max_cycle;Signal;HPM_P1;HPM_P2
2023/12/13 00:01:20;;;;;;;11.75;3.65;;;;;;;8.00;100.00;98545.59;5093064;28;20016;-84
2023/12/13 00:03:46;;;;;;;9.02;3.00;;;;;;;7.95;100.00;98542.56;5092777;28;20127;-84
2023/12/13 00:06:11;;;;;;;11.77;2.65;;;;;;;7.90;100.00;98539.50;5091973;28;20028;-84
2023/12/13 00:08:36;;;;;;;11.45;3.05;;;;;;;7.97;100.00;98539.88;5091743;28;20058;-84
2023/12/13 00:11:03;;;;;;;7.47;2.80;;;;;;;7.96;100.00;98544.19;5095627;28;20024;-85
2023/12/13 00:13:28;;;;;;;11.68;4.30;;;;;;;8.01;100.00;98539.50;5103616;27;20019;-85
2023/12/13 00:15:53;;;;;;;7.47;2.88;;;;;;;8.05;100.00;98543.50;5092176;28;20028;-85
2023/12/13 00:18:19;;;;;;;10.75;3.50;;;;;;;7.94;100.00;98546.06;5092560;28;20028;-84
2023/12/13 00:20:44;;;;;;;11.10;3.15;;;;;;;7.91;100.00;98541.16;5093965;28;20038;-85
2023/12/13 00:23:09;;;;;;;8.55;2.90;;;;;;;7.83;100.00;98543.50;5091579;28;20404;-85
2023/12/13 00:25:35;;;;;;;9.65;3.17;;;;;;;7.99;100.00;98543.13;5092325;28;20024;-85
2023/12/13 00:28:00;;;;;;;9.40;4.18;;;;;;;7.98;100.00;98541.53;5092791;28;20031;-85
2023/12/13 00:30:25;;;;;;;21.20;3.65;;;;;;;7.88;100.00;98546.53;5092475;28;20110;-85
2023/12/13 00:32:50;;;;;;;6.00;2.63;;;;;;;7.99;100.00;98549.09;5092929;28;20101;-85
2023/12/13 00:35:16;;;;;;;8.20;3.85;;;;;;;7.85;100.00;98557.03;5092919;28;20024;-85
2023/12/13 00:37:41;;;;;;;11.57;3.58;;;;;;;7.98;100.00;98559.50;5092766;28;20077;-85
2023/12/13 00:40:07;;;;;;;9.82;3.92;;;;;;;8.09;100.00;98551.75;5092709;28;20073;-85
2023/12/13 00:42:32;;;;;;;6.90;2.92;;;;;;;8.07;100.00;98554.47;5092825;28;20129;-85
2023/12/13 00:44:58;;;;;;;13.52;3.60;;;;;;;8.06;100.00;98549.44;5092159;28;20466;-85
2023/12/13 00:47:23;;;;;;;5.68;2.97;;;;;;;7.93;100.00;98555.53;5092622;28;20027;-85
2023/12/13 00:49:48;;;;;;;9.32;5.40;;;;;;;7.96;100.00;98558.81;5092584;28;20055;-85
2023/12/13 00:52:14;;;;;;;10.80;3.80;;;;;;;7.92;100.00;98566.75;5092279;28;20043;-85
2023/12/13 00:54:39;;;;;;;7.50;3.47;;;;;;;7.85;100.00;98572.44;5092225;28;20024;-85
2023/12/13 00:57:06;;;;;;;12.05;3.78;;;;;;;7.72;100.00;98577.69;5092302;28;20054;-85
2023/12/13 00:59:32;;;;;;;5.97;3.75;;;;;;;7.70;100.00;98580.38;5091100;28;20051;-85
2023/12/13 01:01:58;;;;;;;9.90;3.80;;;;;;;7.63;100.00;98584.34;5092605;28;20495;-85
2023/12/13 01:04:23;;;;;;;12.27;5.15;;;;;;;7.62;100.00;98584.47;5092298;28;20474;-85
2023/12/13 01:06:48;;;;;;;15.18;4.47;;;;;;;7.61;100.00;98593.91;5092100;28;20078;-85
2023/12/13 01:09:14;;;;;;;6.70;3.78;;;;;;;7.66;100.00;98594.41;5092234;28;20054;-85
2023/12/13 01:11:39;;;;;;;11.32;4.32;;;;;;;7.65;100.00;98600.44;5092139;28;20028;-85
2023/12/13 01:14:04;;;;;;;14.38;4.47;;;;;;;7.68;100.00;98605.38;5092424;28;20024;-85
2023/12/13 01:16:30;;;;;;;12.57;4.38;;;;;;;7.81;100.00;98602.69;5091937;28;20031;-85
2023/12/13 01:18:55;;;;;;;15.40;5.63;;;;;;;7.82;100.00;98598.38;5092451;28;20020;-84
2023/12/13 01:21:21;;;;;;;11.32;5.40;;;;;;;7.71;100.00;98605.13;5092116;28;20378;-85
2023/12/13 01:23:46;;;;;;;8.95;4.55;;;;;;;7.82;100.00;98599.19;5091845;28;20035;-84
2023/12/13 01:26:11;;;;;;;15.02;6.70;;;;;;;7.64;100.00;98598.81;5091899;28;20035;-85
2023/12/13 01:28:37;;;;;;;7.95;4.70;;;;;;;7.86;100.00;98605.72;5092090;28;20107;-85
2023/12/13 01:31:08;;;;;;;15.65;5.53;;;;;;;7.81;100.00;98610.41;5092027;28;20029;-85
2023/12/13 01:33:33;;;;;;;11.18;6.00;;;;;;;7.76;100.00;98603.97;5092199;28;20028;-85
2023/12/13 01:36:02;;;;;;;10.95;6.70;;;;;;;7.71;100.00;98610.28;5092297;28;20042;-85
2023/12/13 01:38:27;;;;;;;12.13;7.10;;;;;;;7.77;100.00;98616.69;5092185;28;20105;-85
2023/12/13 01:40:53;;;;;;;11.05;7.00;;;;;;;7.78;100.00;98622.63;5092378;28;20405;-84
2023/12/13 01:43:24;;;;;;;13.45;8.30;;;;;;;7.79;100.00;98625.09;5092024;28;20420;-85
2023/12/13 01:45:52;;;;;;;11.25;8.00;;;;;;;7.82;100.00;98624.06;5091593;28;20047;-84
2023/12/13 01:48:18;;;;;;;10.85;7.18;;;;;;;7.82;100.00;98634.31;5092086;28;20086;-84
2023/12/13 01:50:44;;;;;;;14.15;7.53;;;;;;;7.75;100.00;98628.00;5091978;28;20025;-84
2023/12/13 01:53:11;;;;;;;10.60;7.13;;;;;;;7.74;100.00;98632.34;5091809;28;20533;-85
2023/12/13 01:55:36;;;;;;;11.95;7.68;;;;;;;7.72;100.00;98640.13;5091445;28;20035;-85
2023/12/13 01:58:04;;;;;;;12.30;8.98;;;;;;;7.68;100.00;98640.47;5091827;28;20110;-85
2023/12/13 02:00:29;;;;;;;13.68;8.35;;;;;;;7.64;100.00;98646.78;5091948;28;20051;-85
2023/12/13 02:02:56;;;;;;;14.50;7.88;;;;;;;7.58;100.00;98653.19;5091851;28;20482;-85
2023/12/13 02:05:24;;;;;;;14.25;7.90;;;;;;;7.50;100.00;98650.38;5091509;28;20036;-85
2023/12/13 02:07:50;;;;;;;11.82;7.07;;;;;;;7.42;100.00;98662.97;5091797;28;20028;-85
2023/12/13 02:10:15;;;;;;;9.13;6.65;;;;;;;7.33;100.00;98672.13;5091744;28;20169;-85
2023/12/13 02:12:41;;;;;;;9.77;6.75;;;;;;;7.44;100.00;98677.31;5092124;28;20530;-84
2023/12/13 02:15:07;;;;;;;9.15;7.20;;;;;;;7.57;100.00;98677.22;5091343;28;20031;-84
2023/12/13 02:17:33;;;;;;;11.45;8.13;;;;;;;7.38;100.00;98689.75;5091816;28;20016;-84
2023/12/13 02:19:59;;;;;;;15.57;8.27;;;;;;;7.50;100.00;98691.44;5091652;28;20232;-84
2023/12/13 02:22:24;;;;;;;11.77;7.50;;;;;;;7.53;100.00;98688.63;5091320;28;20016;-85
2023/12/13 02:24:54;;;;;;;12.63;8.65;;;;;;;7.47;100.00;98699.38;5091336;28;20466;-85
2023/12/13 02:27:21;;;;;;;15.38;9.25;;;;;;;7.41;100.00;98707.50;5091260;28;20499;-85
2023/12/13 02:29:48;;;;;;;17.80;9.23;;;;;;;7.51;100.00;98708.50;5093387;28;20027;-85
2023/12/13 02:32:14;;;;;;;15.57;10.30;;;;;;;7.37;100.00;98714.63;5093891;28;20024;-84
2023/12/13 02:34:41;;;;;;;17.02;10.98;;;;;;;7.50;100.00;98711.97;5094880;28;20103;-84
2023/12/13 02:37:06;;;;;;;20.48;11.00;;;;;;;7.45;100.00;98709.75;5094867;28;20051;-84
2023/12/13 02:39:32;;;;;;;15.18;11.23;;;;;;;7.53;100.00;98716.88;5093702;28;20474;-84
2023/12/13 02:41:57;;;;;;;19.48;11.00;;;;;;;7.53;100.00;98709.19;5094922;28;20422;-84
2023/12/13 02:44:23;;;;;;;18.35;11.85;;;;;;;7.47;100.00;98718.16;5094011;28;20024;-84
2023/12/13 02:46:48;;;;;;;18.42;11.75;;;;;;;7.56;100.00;98720.97;5094500;28;20604;-84
2023/12/13 02:49:14;;;;;;;21.02;12.85;;;;;;;7.56;100.00;98723.53;5094843;28;20020;-84
2023/12/13 02:51:39;;;;;;;24.17;13.15;;;;;;;7.54;100.00;98723.66;5094560;28;20035;-84
2023/12/13 02:54:04;;;;;;;19.67;12.73;;;;;;;7.43;100.00;98737.25;5094541;28;20466;-84
2023/12/13 02:56:30;;;;;;;19.38;11.32;;;;;;;7.45;100.00;98737.16;5096691;28;20024;-84
2023/12/13 02:58:55;;;;;;;20.25;11.93;;;;;;;7.46;100.00;98743.91;5094222;28;20020;-84
2023/12/13 03:01:21;;;;;;;20.75;11.48;;;;;;;7.53;100.00;98745.13;5097330;28;20040;-84
2023/12/13 03:03:46;;;;;;;18.85;10.63;;;;;;;7.49;100.00;98756.56;5083457;27;20112;-84
2023/12/13 03:06:11;;;;;;;22.08;11.60;;;;;;;7.47;100.00;98753.28;5073930;28;20379;-84
2023/12/13 03:08:37;;;;;;;17.58;10.98;;;;;;;7.46;100.00;98759.31;5074042;28;20378;-84
2023/12/13 03:11:02;;;;;;;18.23;11.27;;;;;;;7.55;100.00;98760.44;5074069;28;20028;-84
2023/12/13 03:13:28;;;;;;;23.23;11.13;;;;;;;7.54;100.00;98764.75;5078468;28;20050;-84
2023/12/13 03:15:53;;;;;;;18.48;11.88;;;;;;;7.50;100.00;98765.88;5094026;28;20161;-84
2023/12/13 03:18:18;;;;;;;20.33;12.57;;;;;;;7.53;100.00;98763.09;5094122;28;20032;-84
2023/12/13 03:20:44;;;;;;;21.45;12.50;;;;;;;7.48;100.00;98765.16;5094094;28;20032;-84
2023/12/13 03:23:10;;;;;;;19.60;12.25;;;;;;;7.56;100.00;98765.47;5093885;28;20034;-85
2023/12/13 03:25:35;;;;;;;20.77;12.05;;;;;;;7.54;100.00;98775.00;5093632;28;20105;-84
2023/12/13 03:28:00;;;;;;;17.40;12.10;;;;;;;7.57;100.00;98777.34;5093751;28;20024;-84
2023/12/13 03:30:26;;;;;;;21.02;12.88;;;;;;;7.55;100.00;98771.50;5093929;28;20104;-84
2023/12/13 03:32:51;;;;;;;19.10;11.85;;;;;;;7.46;100.00;98772.16;5093781;28;20024;-84
2023/12/13 03:35:17;;;;;;;21.08;13.15;;;;;;;7.53;100.00;98768.22;5093577;28;20073;-84
2023/12/13 03:37:42;;;;;;;22.00;12.55;;;;;;;7.52;100.00;98773.50;5093587;28;20066;-85
2023/12/13 03:40:08;;;;;;;22.65;13.65;;;;;;;7.64;100.00;98770.84;5093363;28;20020;-84
2023/12/13 03:42:33;;;;;;;21.70;12.73;;;;;;;7.70;100.00;98765.25;5093497;28;20028;-84
2023/12/13 03:44:58;;;;;;;20.92;13.50;;;;;;;7.65;100.00;98772.47;5093414;28;20115;-84
2023/12/13 03:47:24;;;;;;;19.42;12.70;;;;;;;7.71;100.00;98781.50;5093619;28;20024;-84
2023/12/13 03:49:49;;;;;;;23.25;13.52;;;;;;;7.50;100.00;98789.81;5093425;28;20028;-84
2023/12/13 03:52:14;;;;;;;29.90;14.57;;;;;;;7.59;100.00;98788.34;5093412;28;20035;-84
2023/12/13 03:54:40;;;;;;;22.80;14.18;;;;;;;7.63;100.00;98794.06;5093249;28;20028;-84
2023/12/13 03:57:05;;;;;;;26.30;14.80;;;;;;;7.67;100.00;98790.34;5092100;28;20490;-84
2023/12/13 03:59:30;;;;;;;27.70;14.05;;;;;;;7.71;100.00;98782.31;5093262;28;20458;-84
2023/12/13 04:01:56;;;;;;;28.08;12.90;;;;;;;7.59;100.00;98788.34;5093190;28;20555;-84
2023/12/13 04:04:21;;;;;;;24.83;14.48;;;;;;;7.60;100.00;98784.00;5093050;28;20517;-84
2023/12/13 04:06:47;;;;;;;24.13;13.63;;;;;;;7.64;100.00;98780.31;5093113;28;20390;-84
2023/12/13 04:09:12;;;;;;;19.45;11.07;;;;;;;7.63;100.00;98776.94;5093204;28;20024;-84
2023/12/13 04:11:38;;;;;;;17.48;11.18;;;;;;;7.63;100.00;98773.53;5093081;28;20055;-84
2023/12/13 04:14:04;;;;;;;17.02;10.80;;;;;;;7.56;100.00;98768.03;5093007;28;20047;-84
2023/12/13 04:16:29;;;;;;;19.45;10.85;;;;;;;7.64;100.00;98781.13;5093234;28;20024;-84
2023/12/13 04:18:55;;;;;;;18.38;10.75;;;;;;;7.64;100.00;98780.31;5087861;28;20489;-84
2023/12/13 04:21:20;;;;;;;22.70;12.18;;;;;;;7.69;100.00;98794.44;5072675;28;20484;-84
2023/12/13 04:23:46;;;;;;;19.40;11.35;;;;;;;7.66;100.00;98793.88;5072565;28;20021;-83
2023/12/13 04:26:11;;;;;;;21.35;12.35;;;;;;;7.60;100.00;98802.81;5072350;28;20029;-83
2023/12/13 04:28:37;;;;;;;17.77;11.40;;;;;;;7.49;100.00;98808.72;5072597;28;20115;-83
2023/12/13 04:31:02;;;;;;;19.45;11.27;;;;;;;7.56;100.00;98824.50;5072315;28;20382;-83
2023/12/13 04:33:28;;;;;;;20.48;11.95;;;;;;;7.54;100.00;98826.34;5072258;28;20017;-83
2023/12/13 04:35:57;;;;;;;16.10;10.32;;;;;;;7.66;100.00;98829.81;5072204;28;20150;-83
2023/12/13 04:38:22;;;;;;;16.20;9.73;;;;;;;7.56;100.00;98833.94;5072889;28;20025;-83
2023/12/13 04:40:48;;;;;;;24.60;11.32;;;;;;;7.63;100.00;98838.56;5092441;28;20363;-84
2023/12/13 04:43:13;;;;;;;19.95;12.30;;;;;;;7.60;100.00;98846.44;5092679;28;20378;-83
2023/12/13 04:45:38;;;;;;;20.70;12.13;;;;;;;7.65;100.00;98849.50;5091165;28;20104;-83
2023/12/13 04:48:04;;;;;;;19.88;12.15;;;;;;;7.70;100.00;98852.56;5092226;28;20027;-83
2023/12/13 04:50:29;;;;;;;20.95;12.70;;;;;;;7.74;100.00;98849.81;5091058;28;20063;-83
2023/12/13 04:52:55;;;;;;;20.02;11.32;;;;;;;7.77;100.00;98852.97;5091842;28;20028;-83
2023/12/13 04:55:20;;;;;;;20.60;13.13;;;;;;;7.67;100.00;98857.94;5092075;28;20024;-83
2023/12/13 04:57:45;;;;;;;26.08;14.32;;;;;;;7.67;100.00;98863.06;5091679;28;20035;-83
2023/12/13 05:00:11;;;;;;;22.77;13.70;;;;;;;7.65;100.00;98862.34;5092252;28;20063;-83
2023/12/13 05:02:39;;;;;;;25.63;15.20;;;;;;;7.59;100.00;98865.38;5091763;28;20024;-84
2023/12/13 05:05:05;;;;;;;23.45;14.43;;;;;;;7.54;100.00;98867.44;5091780;28;20031;-83
2023/12/13 05:07:30;;;;;;;26.75;14.88;;;;;;;7.69;100.00;98866.34;5090989;28;20020;-83
2023/12/13 05:09:56;;;;;;;28.58;16.30;;;;;;;7.51;100.00;98875.38;5092162;28;20115;-83
2023/12/13 05:12:21;;;;;;;28.35;16.35;;;;;;;7.67;100.00;98883.59;5091439;28;20048;-83
2023/12/13 05:14:47;;;;;;;31.92;16.52;;;;;;;7.62;100.00;98877.97;5090104;28;20544;-83
2023/12/13 05:17:12;;;;;;;34.58;16.33;;;;;;;7.68;100.00;98879.28;5089969;28;20405;-84
2023/12/13 05:19:38;;;;;;;29.27;15.35;;;;;;;7.62;100.00;98890.00;5091896;28;20382;-83
2023/12/13 05:22:03;;;;;;;27.02;16.60;;;;;;;7.58;100.00;98897.09;5090603;28;20027;-83
2023/12/13 05:24:28;;;;;;;34.28;18.80;;;;;;;7.68;100.00;98899.84;5091894;28;20038;-83
2023/12/13 05:26:54;;;;;;;26.52;16.20;;;;;;;7.59;100.00;98906.44;5091945;28;20032;-83
2023/12/13 05:29:19;;;;;;;29.48;16.55;;;;;;;7.56;100.00;98904.09;5090924;28;20058;-83
2023/12/13 05:31:44;;;;;;;31.27;17.83;;;;;;;7.51;100.00;98908.75;5092218;28;20028;-84
2023/12/13 05:34:10;;;;;;;36.88;17.33;;;;;;;7.55;100.00;98914.47;5091457;28;20032;-83
2023/12/13 05:36:35;;;;;;;33.10;17.25;;;;;;;7.56;100.00;98926.38;5091821;28;20027;-83
2023/12/13 05:39:00;;;;;;;36.67;17.92;;;;;;;7.38;100.00;98925.88;5092118;28;20024;-83
2023/12/13 05:41:26;;;;;;;33.40;17.40;;;;;;;7.47;100.00;98928.66;5092105;28;20024;-83
2023/12/13 05:43:51;;;;;;;34.95;18.55;;;;;;;7.47;100.00;98917.56;5091154;28;20031;-83
2023/12/13 05:46:17;;;;;;;35.15;18.25;;;;;;;7.51;100.00;98926.72;5091885;28;20031;-83
2023/12/13 05:48:43;;;;;;;29.40;16.75;;;;;;;7.59;100.00;98926.19;5090384;28;20016;-83
2023/12/13 05:51:08;;;;;;;32.15;16.75;;;;;;;7.53;100.00;98929.97;5092123;28;20028;-83
2023/12/13 05:53:33;;;;;;;32.20;18.13;;;;;;;7.56;100.00;98929.78;5091848;28;20020;-83
2023/12/13 05:55:59;;;;;;;32.05;17.08;;;;;;;7.54;100.00;98934.19;5091911;28;20113;-84
2023/12/13 05:58:24;;;;;;;28.30;15.68;;;;;;;7.37;100.00;98942.22;5091471;28;20154;-84
2023/12/13 06:00:50;;;;;;;29.63;15.35;;;;;;;7.31;100.00;98940.06;5091491;28;20033;-83
2023/12/13 06:03:15;;;;;;;32.75;15.15;;;;;;;7.41;100.00;98949.63;5091754;28;20035;-83
2023/12/13 06:05:41;;;;;;;33.83;15.18;;;;;;;7.36;100.00;98943.13;5093571;28;20032;-83
2023/12/13 06:08:06;;;;;;;26.73;14.63;;;;;;;7.17;100.00;98951.25;5095615;28;20020;-83
2023/12/13 06:10:31;;;;;;;27.23;15.10;;;;;;;7.14;100.00;98947.16;5095695;28;20048;-83
2023/12/13 06:12:57;;;;;;;24.17;14.13;;;;;;;7.05;100.00;98956.31;5095902;28;20050;-83
2023/12/13 06:15:22;;;;;;;34.50;15.65;;;;;;;6.98;100.00;98961.94;5095986;28;20020;-83
2023/12/13 06:17:48;;;;;;;25.52;14.05;;;;;;;7.02;100.00;98968.50;5095144;28;20474;-83
2023/12/13 06:20:14;;;;;;;31.17;15.45;;;;;;;6.90;100.00;98975.28;5095582;28;20036;-83
2023/12/13 06:22:39;;;;;;;29.13;15.68;;;;;;;6.95;100.00;98964.69;5094716;28;20462;-83
2023/12/13 06:25:05;;;;;;;28.35;15.48;;;;;;;6.98;100.00;98965.31;5094996;28;20031;-84
2023/12/13 06:27:30;;;;;;;32.83;15.80;;;;;;;7.05;100.00;98976.00;5094880;28;20032;-83
2023/12/13 06:29:55;;;;;;;31.17;14.52;;;;;;;7.12;100.00;98978.97;5094858;28;20496;-84
2023/12/13 06:32:21;;;;;;;23.63;13.35;;;;;;;7.11;100.00;98979.91;5095134;28;20428;-83
2023/12/13 06:34:46;;;;;;;24.75;13.07;;;;;;;7.25;100.00;98975.50;5095043;28;20016;-83
2023/12/13 06:37:12;;;;;;;24.02;12.90;;;;;;;7.09;100.00;98990.25;5093872;28;20441;-83
2023/12/13 06:39:37;;;;;;;31.50;13.55;;;;;;;7.13;100.00;98986.56;5094971;28;20060;-83
2023/12/13 06:42:04;;;;;;;25.25;12.50;;;;;;;7.14;100.00;98983.06;5094797;28;20119;-83
2023/12/13 06:44:29;;;;;;;25.25;12.90;;;;;;;7.23;100.00;98994.47;5094844;28;20055;-83
2023/12/13 06:46:55;;;;;;;24.50;12.23;;;;;;;7.13;100.00;98994.28;5094508;28;20504;-83
2023/12/13 06:49:22;;;;;;;25.65;12.52;;;;;;;7.31;100.00;98997.34;5094679;28;20486;-83
2023/12/13 06:51:49;;;;;;;20.27;11.38;;;;;;;7.27;100.00;98993.34;5094493;28;20470;-83
2023/12/13 06:54:14;;;;;;;24.42;12.13;;;;;;;7.24;100.00;99004.66;5091580;28;20389;-83
2023/12/13 06:56:40;;;;;;;26.45;13.02;;;;;;;7.31;100.00;98999.09;5095164;28;20099;-83
2023/12/13 06:59:05;;;;;;;17.35;10.27;;;;;;;7.23;100.00;98992.72;5095118;28;20097;-84
2023/12/13 07:01:31;;;;;;;28.58;11.70;;;;;;;7.41;100.00;98992.41;5094575;28;20077;-84
2023/12/13 07:03:56;;;;;;;20.88;10.93;;;;;;;7.33;100.00;98992.94;5094452;28;20035;-83
2023/12/13 07:06:21;;;;;;;17.45;9.88;;;;;;;7.39;100.00;99013.06;5094115;28;20024;-83
2023/12/13 07:08:47;;;;;;;21.33;10.63;;;;;;;7.37;100.00;99006.41;5094406;28;20027;-83
2023/12/13 07:11:12;;;;;;;18.48;10.05;;;;;;;7.46;100.00;99010.88;5094160;28;20024;-83
2023/12/13 07:13:37;;;;;;;17.67;10.10;;;;;;;7.35;100.00;99015.94;5094422;28;20020;-83
2023/12/13 07:16:03;;;;;;;19.67;9.40;;;;;;;7.47;100.00;99020.25;5093773;28;20063;-84
2023/12/13 07:18:29;;;;;;;20.27;8.65;;;;;;;7.54;100.00;99026.63;5094373;28;20028;-84
2023/12/13 07:20:54;;;;;;;14.60;8.48;;;;;;;7.38;100.00;99020.84;5091368;28;20021;-84
2023/12/13 07:23:19;;;;;;;16.55;8.60;;;;;;;7.47;100.00;99023.63;5094245;28;20028;-84
2023/12/13 07:25:45;;;;;;;11.13;7.68;;;;;;;7.44;100.00;99031.53;5094283;28;20028;-84
2023/12/13 07:28:13;;;;;;;18.40;7.88;;;;;;;7.37;100.00;99035.44;5094201;28;20032;-84
2023/12/13 07:30:39;;;;;;;13.35;7.85;;;;;;;7.45;100.00;99042.63;5093177;28;20051;-83
2023/12/13 07:33:04;;;;;;;10.30;6.70;;;;;;;7.53;100.00;99045.50;5094473;28;20039;-85
2023/12/13 07:35:29;;;;;;;11.68;7.32;;;;;;;7.44;100.00;99046.13;5093968;28;20056;-85
2023/12/13 07:37:55;;;;;;;11.80;7.05;;;;;;;7.26;100.00;99055.84;5094210;28;20024;-84
2023/12/13 07:40:20;;;;;;;8.90;6.88;;;;;;;7.33;100.00;99053.72;5093110;28;20381;-85
2023/12/13 07:42:46;;;;;;;11.88;6.93;;;;;;;7.32;100.00;99070.06;5092998;28;20448;-84
2023/12/13 07:45:13;;;;;;;10.82;6.75;;;;;;;7.20;100.00;99085.31;5073125;28;20035;-85
2023/12/13 07:47:38;;;;;;;7.13;4.97;;;;;;;7.25;100.00;99082.44;5073794;28;20474;-85
2023/12/13 07:50:05;;;;;;;8.02;5.00;;;;;;;7.19;100.00;99088.78;5092610;28;20031;-85
2023/12/13 07:52:31;;;;;;;6.57;4.00;;;;;;;7.20;100.00;99100.72;5092050;28;20482;-85
2023/12/13 07:54:56;;;;;;;5.60;3.78;;;;;;;7.21;100.00;99098.97;5092427;28;20063;-85
2023/12/13 07:57:21;;;;;;;5.25;3.78;;;;;;;7.16;100.00;99114.66;5092671;28;20071;-85
2023/12/13 07:59:47;;;;;;;4.10;3.70;;;;;;;7.18;100.00;99117.94;5092284;28;20047;-84
2023/12/13 08:02:12;;;;;;;3.20;2.85;;;;;;;7.15;100.00;99120.72;5092184;28;20036;-85
2023/12/13 08:04:40;;;;;;;5.68;2.85;;;;;;;7.17;100.00;99118.88;5091824;28;20024;-85
2023/12/13 08:07:06;;;;;;;2.35;2.15;;;;;;;7.11;100.00;99126.16;5092842;28;20492;-84
2023/12/13 08:09:31;;;;;;;1.83;1.73;;;;;;;7.03;100.00;99134.34;5092399;28;20024;-84
2023/12/13 08:11:56;;;;;;;2.85;1.70;;;;;;;7.12;100.00;99138.88;5092727;28;20036;-85
2023/12/13 08:14:25;;;;;;;2.13;1.92;;;;;;;7.03;100.00;99150.53;5092810;28;20032;-84
2023/12/13 08:16:51;;;;;;;2.03;1.50;;;;;;;7.12;100.00;99151.72;5093180;28;20066;-85
2023/12/13 08:19:16;;;;;;;3.55;1.88;;;;;;;7.05;100.00;99158.16;5092842;28;20048;-85
2023/12/13 08:21:41;;;;;;;1.80;1.38;;;;;;;7.09;100.00;99159.59;5091673;28;20107;-84
2023/12/13 08:24:10;;;;;;;2.08;1.73;;;;;;;7.06;100.00;99155.47;5092379;28;20493;-84
2023/12/13 08:26:36;;;;;;;1.55;1.25;;;;;;;7.01;100.00;99172.09;5089973;28;20050;-84
2023/12/13 08:29:01;;;;;;;1.92;1.30;;;;;;;7.02;100.00;99168.59;5091195;28;20020;-84
2023/12/13 08:31:26;;;;;;;1.38;1.27;;;;;;;6.93;100.00;99179.44;5092208;28;20059;-85
2023/12/13 08:33:52;;;;;;;2.53;1.20;;;;;;;6.86;100.00;99179.81;5090671;28;20073;-84
2023/12/13 08:36:17;;;;;;;1.13;1.02;;;;;;;7.00;100.00;99185.84;5092569;28;20073;-84
2023/12/13 08:38:43;;;;;;;1.20;1.10;;;;;;;6.95;100.00;99181.00;5092326;28;20508;-84
2023/12/13 08:41:11;;;;;;;0.80;0.80;;;;;;;7.05;100.00;99194.06;5092233;28;20055;-84
2023/12/13 08:43:38;;;;;;;0.73;0.73;;;;;;;6.97;100.00;99197.09;5091964;28;20028;-84
2023/12/13 08:46:04;;;;;;;1.17;1.08;;;;;;;6.96;100.00;99204.91;5092042;28;20073;-84
2023/12/13 08:48:30;;;;;;;1.92;1.67;;;;;;;6.91;100.00;99204.38;5092181;28;20406;-84
2023/12/13 08:50:56;;;;;;;0.90;0.90;;;;;;;6.97;100.00;99211.66;5091154;28;20051;-84
2023/12/13 08:53:21;;;;;;;1.42;0.90;;;;;;;6.95;100.00;99213.50;5092021;28;20048;-84
2023/12/13 08:55:47;;;;;;;4.03;1.17;;;;;;;6.96;100.00;99220.28;5092348;28;20024;-84
2023/12/13 08:58:13;;;;;;;1.10;1.00;;;;;;;6.99;100.00;99225.22;5092031;28;20497;-85
2023/12/13 09:00:38;;;;;;;1.40;1.02;;;;;;;6.94;100.00;99233.19;5091971;28;20028;-85
2023/12/13 09:03:04;;;;;;;1.63;1.20;;;;;;;7.00;100.00;99242.28;5091759;28;20055;-84
2023/12/13 09:05:29;;;;;;;1.17;1.08;;;;;;;7.00;100.00;99249.97;5092260;28;20161;-84
2023/12/13 09:07:55;;;;;;;1.27;1.00;;;;;;;6.83;100.00;99246.69;5092222;28;20023;-84
2023/12/13 09:10:22;;;;;;;2.17;1.10;;;;;;;6.95;100.00;99264.81;5092282;28;20016;-84
2023/12/13 09:12:48;;;;;;;1.00;0.90;;;;;;;6.94;100.00;99258.03;5090396;28;20386;-84
2023/12/13 09:15:17;;;;;;;0.80;0.80;;;;;;;7.02;100.00;99266.06;5091760;28;20024;-85
2023/12/13 09:17:45;;;;;;;1.08;1.00;;;;;;;7.03;100.00;99275.44;5091859;28;20097;-87
2023/12/13 09:20:14;;;;;;;1.75;0.98;;;;;;;7.02;100.00;99273.78;5089783;28;20024;-86
2023/12/13 09:22:41;;;;;;;1.02;0.93;;;;;;;6.97;100.00;99288.63;5082968;28;20379;-86
2023/12/13 09:25:07;;;;;;;1.02;0.95;;;;;;;6.98;100.00;99287.72;5091134;28;20043;-86
2023/12/13 09:27:33;;;;;;;1.98;1.10;;;;;;;6.96;100.00;99286.97;5091171;28;20478;-86
2023/12/13 09:29:58;;;;;;;1.35;1.00;;;;;;;7.12;100.00;99287.69;5091269;28;20106;-85
2023/12/13 09:32:23;;;;;;;4.32;1.35;;;;;;;7.02;100.00;99286.59;5091893;28;20047;-86
2023/12/13 09:34:49;;;;;;;1.02;0.93;;;;;;;7.06;100.00;99293.19;5091005;28;20103;-86
2023/12/13 09:37:15;;;;;;;1.67;1.20;;;;;;;7.07;100.00;99299.97;5091508;28;20271;-86
2023/12/13 09:39:40;;;;;;;2.65;1.00;;;;;;;7.01;100.00;99297.78;5095318;28;20024;-86
2023/12/13 09:42:07;;;;;;;1.20;1.10;;;;;;;7.09;100.00;99298.13;5095538;28;20020;-86
2023/12/13 09:44:38;;;;;;;3.28;1.17;;;;;;;7.14;100.00;99306.38;5095751;28;20020;-86
2023/12/13 09:47:05;;;;;;;1.98;1.23;;;;;;;7.12;100.00;99313.38;5095352;28;20028;-86
2023/12/13 09:49:34;;;;;;;1.50;1.00;;;;;;;7.11;100.00;99321.16;5094460;28;20082;-86
2023/12/13 09:52:02;;;;;;;4.13;1.10;;;;;;;7.16;100.00;99330.19;5095359;28;20016;-86
2023/12/13 09:54:28;;;;;;;0.80;0.80;;;;;;;7.14;100.00;99329.47;5095530;28;20024;-85
2023/12/13 09:56:54;;;;;;;2.90;1.20;;;;;;;7.15;100.00;99328.56;5095560;28;20038;-86
2023/12/13 09:59:19;;;;;;;5.03;1.02;;;;;;;7.23;100.00;99341.75;5095061;28;20023;-86
2023/12/13 10:01:44;;;;;;;0.88;0.88;;;;;;;7.18;100.00;99346.31;5094446;28;20111;-86
2023/12/13 10:04:10;;;;;;;0.88;0.88;;;;;;;7.22;100.00;99354.69;5094275;28;20077;-86
2023/12/13 10:06:35;;;;;;;1.83;0.80;;;;;;;7.17;100.00;99357.53;5095486;28;20111;-85
2023/12/13 10:09:03;;;;;;;1.15;0.80;;;;;;;7.20;100.00;99364.22;5095254;28;20020;-86
2023/12/13 10:11:29;;;;;;;0.95;0.93;;;;;;;7.12;100.00;99368.97;5094407;28;20016;-86
2023/12/13 10:13:56;;;;;;;2.15;1.00;;;;;;;7.15;100.00;99374.75;5094538;28;20031;-85
2023/12/13 10:16:21;;;;;;;0.90;0.70;;;;;;;7.14;100.00;99377.41;5094841;28;20350;-86
2023/12/13 10:18:47;;;;;;;1.45;0.90;;;;;;;7.07;100.00;99382.06;5094050;28;20028;-86
2023/12/13 10:21:14;;;;;;;0.98;0.73;;;;;;;7.19;100.00;99401.84;5093792;28;20055;-85
2023/12/13 10:23:41;;;;;;;1.85;0.85;;;;;;;7.22;100.00;99403.44;5094198;28;20028;-87
2023/12/13 10:26:08;;;;;;;1.35;1.13;;;;;;;7.19;100.00;99401.03;5093507;28;20027;-86
2023/12/13 10:28:35;;;;;;;1.23;0.98;;;;;;;7.16;100.00;99417.44;5094218;28;20023;-85
2023/12/13 10:31:01;;;;;;;1.60;1.02;;;;;;;7.07;100.00;99413.72;5094542;28;20494;-86
2023/12/13 10:33:26;;;;;;;1.40;0.80;;;;;;;7.13;100.00;99414.25;5094967;28;20063;-85
2023/12/13 10:35:53;;;;;;;1.30;0.90;;;;;;;7.16;100.00;99426.91;5093807;28;20109;-85
2023/12/13 10:38:23;;;;;;;1.73;1.00;;;;;;;7.26;100.00;99438.25;5094692;28;20020;-86
2023/12/13 10:40:49;;;;;;;1.25;0.90;;;;;;;7.27;100.00;99439.91;5094702;28;20096;-85
2023/12/13 10:43:15;;;;;;;1.60;1.00;;;;;;;7.26;100.00;99433.94;5094596;28;20537;-86
2023/12/13 10:45:48;;;;;;;2.30;1.00;;;;;;;7.39;100.00;99440.91;5094344;28;20032;-85
2023/12/13 10:48:16;;;;;;;1.67;0.80;;;;;;;7.26;100.00;99448.53;5093436;28;20382;-85
2023/12/13 10:50:45;;;;;;;2.88;0.90;;;;;;;7.30;100.00;99450.00;5092737;28;20024;-85
2023/12/13 10:53:12;;;;;;;2.92;0.80;;;;;;;7.41;100.00;99467.31;5094045;28;20500;-86
2023/12/13 10:55:39;;;;;;;0.93;0.73;;;;;;;7.42;100.00;99468.97;5094071;28;20436;-85
2023/12/13 10:58:05;;;;;;;1.20;0.63;;;;;;;7.41;100.00;99469.88;5093286;28;20389;-85
2023/12/13 11:00:32;;;;;;;1.33;1.08;;;;;;;7.31;100.00;99481.63;5092616;28;20108;-85
2023/12/13 11:03:11;;;;;;;1.38;0.70;;;;;;;7.34;100.00;99482.28;5094203;28;20074;-85
2023/12/13 11:05:37;;;;;;;1.00;0.75;;;;;;;7.37;100.00;99486.41;5091618;28;20036;-85
2023/12/13 11:08:20;;;;;;;1.77;0.60;;;;;;;7.39;100.00;99499.94;5094282;28;20020;-85
2023/12/13 11:11:01;;;;;;;1.40;0.57;;;;;;;7.40;100.00;99502.44;5093968;28;20024;-86
2023/12/13 11:13:26;;;;;;;1.67;0.57;;;;;;;7.41;100.00;99513.53;5093357;28;20471;-85
2023/12/13 11:15:52;;;;;;;1.58;0.70;;;;;;;7.34;100.00;99513.06;5093912;28;20111;-85
2023/12/13 11:18:17;;;;;;;0.90;0.52;;;;;;;7.23;100.00;99508.56;5093763;28;20020;-85